createdAt,value
2022-09-12T00:00:39.400Z,79.59
2022-09-12T00:03:27.017Z,79.72
2022-09-12T00:05:55.641Z,80.00
2022-09-12T00:08:23.186Z,78.89
2022-09-12T00:10:50.816Z,78.84
2022-09-12T00:13:18.013Z,78.94
2022-09-12T00:15:45.616Z,78.51
2022-09-12T00:18:15.377Z,78.24
2022-09-12T00:20:44.696Z,79.03
2022-09-12T00:23:14.647Z,79.30
2022-09-12T00:25:42.911Z,79.26
2022-09-12T00:28:14.975Z,79.82
2022-09-12T00:30:42.959Z,79.48
2022-09-12T00:33:11.008Z,79.03
2022-09-12T00:35:42.629Z,79.09
2022-09-12T00:38:09.933Z,78.87
2022-09-12T00:40:38.575Z,78.48
2022-09-12T00:43:07.013Z,79.51
2022-09-12T00:45:34.320Z,78.63
2022-09-12T00:48:04.226Z,79.18
2022-09-12T00:50:33.220Z,78.89
2022-09-12T00:53:04.581Z,79.46
2022-09-12T00:55:38.151Z,79.09
2022-09-12T00:58:13.012Z,78.15
2022-09-12T01:00:40.328Z,78.11
2022-09-12T01:03:12.425Z,78.32
2022-09-12T01:05:50.259Z,78.15
2022-09-12T01:08:17.815Z,78.05
2022-09-12T01:10:45.360Z,77.71
2022-09-12T01:13:14.698Z,77.42
2022-09-12T01:15:42.226Z,77.02
2022-09-12T01:18:16.665Z,76.30
2022-09-12T01:21:13.222Z,76.68
2022-09-12T01:24:21.423Z,76.79
2022-09-12T01:27:06.566Z,77.25
2022-09-12T01:30:12.258Z,77.36
2022-09-12T01:32:56.281Z,77.08
2022-09-12T01:35:29.137Z,77.51
2022-09-12T01:38:08.935Z,78.07
2022-09-12T01:40:44.194Z,77.38
2022-09-12T01:43:21.970Z,77.38
2022-09-12T01:45:58.373Z,76.95
2022-09-12T01:48:30.996Z,77.31
2022-09-12T01:51:07.720Z,77.83
2022-09-12T01:53:40.289Z,77.94
2022-09-12T01:56:12.905Z,77.98
2022-09-12T01:58:44.957Z,77.43
2022-09-12T02:01:17.771Z,77.37
2022-09-12T02:03:50.335Z,76.45
2022-09-12T02:06:20.633Z,76.38
2022-09-12T02:08:52.233Z,76.01
2022-09-12T02:11:21.654Z,76.36
2022-09-12T02:13:54.393Z,76.66
2022-09-12T02:16:26.131Z,76.61
2022-09-12T02:19:00.365Z,76.56
2022-09-12T02:21:28.146Z,77.20
2022-09-12T02:23:59.595Z,76.62
2022-09-12T02:26:34.323Z,76.64
2022-09-12T02:29:03.688Z,77.14
2022-09-12T02:31:38.552Z,76.42
2022-09-12T02:34:26.914Z,76.50
2022-09-12T02:37:03.988Z,76.75
2022-09-12T02:39:31.738Z,76.61
2022-09-12T02:42:02.019Z,75.72
2022-09-12T02:44:30.845Z,77.03
2022-09-12T02:47:05.067Z,76.70
2022-09-12T02:49:34.088Z,76.06
2022-09-12T02:52:02.497Z,75.95
2022-09-12T02:54:31.212Z,76.08
2022-09-12T02:56:58.457Z,75.51
2022-09-12T02:59:26.668Z,76.15
2022-09-12T03:02:07.548Z,75.85
2022-09-12T03:04:52.664Z,75.82
2022-09-12T03:07:27.289Z,75.88
2022-09-12T03:10:02.094Z,76.11
2022-09-12T03:12:45.899Z,75.52
2022-09-12T03:15:24.369Z,75.57
2022-09-12T03:18:03.349Z,75.97
2022-09-12T03:20:43.245Z,75.90
2022-09-12T03:23:19.347Z,76.70
2022-09-12T03:25:52.405Z,76.29
2022-09-12T03:28:22.136Z,77.33
2022-09-12T03:30:51.256Z,77.40
2022-09-12T03:33:20.287Z,76.83
2022-09-12T03:35:50.171Z,76.70
2022-09-12T03:38:18.877Z,76.74
2022-09-12T03:40:46.133Z,76.53
2022-09-12T03:43:13.525Z,76.58
2022-09-12T03:45:41.319Z,76.69
2022-09-12T03:48:08.818Z,77.19
2022-09-12T03:50:36.355Z,77.68
2022-09-12T03:53:05.386Z,77.37
2022-09-12T03:55:32.638Z,77.80
2022-09-12T03:58:00.223Z,78.26
2022-09-12T04:00:27.846Z,78.02
2022-09-12T04:02:55.804Z,77.65
2022-09-12T04:05:23.633Z,77.25
2022-09-12T04:07:51.466Z,77.67
2022-09-12T04:10:20.387Z,77.36
2022-09-12T04:12:47.706Z,78.05
2022-09-12T04:15:17.900Z,78.17
2022-09-12T04:17:45.487Z,78.19
2022-09-12T04:20:12.777Z,78.50
2022-09-12T04:22:40.497Z,78.50
2022-09-12T04:25:08.843Z,78.57
2022-09-12T04:27:37.529Z,78.32
2022-09-12T04:30:06.305Z,78.77
2022-09-12T04:32:33.571Z,78.93
2022-09-12T04:35:00.898Z,78.55
2022-09-12T04:37:29.041Z,78.67
2022-09-12T04:39:56.297Z,78.17
2022-09-12T04:42:23.702Z,78.69
2022-09-12T04:44:53.174Z,78.92
2022-09-12T04:47:20.803Z,79.18
2022-09-12T04:49:49.255Z,79.39
2022-09-12T04:52:17.005Z,79.76
2022-09-12T04:54:44.231Z,80.36
2022-09-12T04:57:11.524Z,80.24
2022-09-12T04:59:39.472Z,80.54
2022-09-12T05:02:10.531Z,80.67
2022-09-12T05:04:38.013Z,80.47
2022-09-12T05:07:05.756Z,80.72
2022-09-12T05:09:33.264Z,80.89
2022-09-12T05:12:04.103Z,80.46
2022-09-12T05:14:33.519Z,79.97
2022-09-12T05:17:01.992Z,79.29
2022-09-12T05:19:31.304Z,80.26
2022-09-12T05:21:59.725Z,79.59
2022-09-12T05:24:27.312Z,80.04
2022-09-12T05:26:54.953Z,80.16
2022-09-12T05:29:22.557Z,80.22
2022-09-12T05:31:49.926Z,79.31
2022-09-12T05:34:17.241Z,79.24
2022-09-12T05:36:46.556Z,79.15
2022-09-12T05:39:13.970Z,79.24
2022-09-12T05:41:41.424Z,78.17
2022-09-12T05:44:12.875Z,78.66
2022-09-12T05:46:42.013Z,78.09
2022-09-12T05:49:11.865Z,77.81
2022-09-12T05:51:41.707Z,78.36
2022-09-12T05:54:12.639Z,78.14
2022-09-12T05:56:42.414Z,78.54
2022-09-12T05:59:13.145Z,77.71
2022-09-12T06:01:41.142Z,78.17
2022-09-12T06:04:08.560Z,77.50
2022-09-12T06:06:37.346Z,77.64
2022-09-12T06:09:06.459Z,77.43
2022-09-12T06:11:39.786Z,77.09
2022-09-12T06:14:08.970Z,76.77
2022-09-12T06:16:37.024Z,76.96
2022-09-12T06:19:06.252Z,77.50
2022-09-12T06:21:52.894Z,77.30
2022-09-12T06:24:22.078Z,77.06
2022-09-12T06:26:51.601Z,76.45
2022-09-12T06:29:19.237Z,76.46
2022-09-12T06:31:46.491Z,76.66
2022-09-12T06:34:15.904Z,75.37
2022-09-12T06:36:46.188Z,75.23
2022-09-12T06:39:15.517Z,74.81
2022-09-12T06:41:44.480Z,74.81
2022-09-12T06:44:15.919Z,74.95
2022-09-12T06:46:44.054Z,74.44
2022-09-12T06:49:12.256Z,74.29
2022-09-12T06:51:39.568Z,73.83
2022-09-12T06:54:07.675Z,72.46
2022-09-12T06:56:35.056Z,72.78
2022-09-12T06:59:02.264Z,72.99
2022-09-12T07:01:32.397Z,72.62
2022-09-12T07:04:01.083Z,71.33
2022-09-12T07:06:30.439Z,72.30
2022-09-12T07:08:58.560Z,71.90
2022-09-12T07:11:28.556Z,69.14
2022-09-12T07:13:56.570Z,68.78
2022-09-12T07:16:24.385Z,69.34
2022-09-12T07:18:54.790Z,68.50
2022-09-12T07:21:22.451Z,66.10
2022-09-12T07:23:50.144Z,65.79
2022-09-12T07:26:18.183Z,64.20
2022-09-12T07:28:45.385Z,63.40
2022-09-12T07:31:16.343Z,63.59
2022-09-12T07:33:44.823Z,62.43
2022-09-12T07:36:15.066Z,63.23
2022-09-12T07:38:43.624Z,63.19
2022-09-12T07:41:12.175Z,63.19
2022-09-12T07:43:39.757Z,63.34
2022-09-12T07:46:07.692Z,64.08
2022-09-12T07:48:35.556Z,65.33
2022-09-12T07:51:04.863Z,63.81
2022-09-12T07:53:35.533Z,62.52
2022-09-12T07:56:03.934Z,63.43
2022-09-12T07:58:32.605Z,61.78
2022-09-12T08:01:04.669Z,60.92
2022-09-12T08:03:32.022Z,60.59
2022-09-12T08:06:04.107Z,62.97
2022-09-12T08:08:33.570Z,64.32
2022-09-12T08:11:02.752Z,64.37
2022-09-12T08:13:30.674Z,63.92
2022-09-12T08:15:59.275Z,63.39
2022-09-12T08:18:27.028Z,61.72
2022-09-12T08:20:57.938Z,60.53
2022-09-12T08:23:25.536Z,61.75
2022-09-12T08:25:56.159Z,60.18
2022-09-12T08:28:23.895Z,60.01
2022-09-12T08:30:51.951Z,58.52
2022-09-12T08:33:19.394Z,58.75
2022-09-12T08:35:47.459Z,58.44
2022-09-12T08:38:14.996Z,58.43
2022-09-12T08:40:51.474Z,59.17
2022-09-12T08:43:30.839Z,58.58
2022-09-12T08:46:06.666Z,61.07
2022-09-12T08:48:35.645Z,59.87
2022-09-12T08:51:03.444Z,60.13
2022-09-12T08:53:34.109Z,60.29
2022-09-12T08:56:05.155Z,60.34
2022-09-12T08:58:39.585Z,59.67
2022-09-12T09:01:12.284Z,60.30
2022-09-12T09:04:07.463Z,60.07
2022-09-12T09:06:52.662Z,59.50
2022-09-12T09:09:31.129Z,61.28
2022-09-12T09:12:10.061Z,61.87
2022-09-12T09:14:53.081Z,62.74
2022-09-12T09:17:26.223Z,63.90
2022-09-12T09:19:58.654Z,64.83
2022-09-12T09:22:43.427Z,66.91
2022-09-12T09:25:18.758Z,67.73
2022-09-12T09:27:57.508Z,67.86
2022-09-12T09:30:26.203Z,67.42
2022-09-12T09:32:57.213Z,66.28
2022-09-12T09:35:36.779Z,64.69
2022-09-12T09:38:18.974Z,64.57
2022-09-12T09:40:58.689Z,64.53
2022-09-12T09:43:26.893Z,64.68
2022-09-12T09:45:57.906Z,63.91
2022-09-12T09:48:28.961Z,62.98
2022-09-12T09:50:59.171Z,63.59
2022-09-12T09:53:33.358Z,63.48
2022-09-12T09:56:05.576Z,60.68
2022-09-12T09:58:35.401Z,60.37
2022-09-12T10:01:06.235Z,58.74
2022-09-12T10:03:37.411Z,58.47
2022-09-12T10:06:08.489Z,58.17
2022-09-12T10:08:37.717Z,58.76
2022-09-12T10:11:08.036Z,58.40
2022-09-12T10:13:41.295Z,59.03
2022-09-12T10:16:20.570Z,58.09
2022-09-12T10:18:49.769Z,57.39
2022-09-12T10:21:31.583Z,55.98
2022-09-12T10:24:03.988Z,55.23
2022-09-12T10:26:36.072Z,55.07
2022-09-12T10:29:12.000Z,54.82
2022-09-12T10:31:49.993Z,55.46
2022-09-12T10:34:25.831Z,55.86
2022-09-12T10:36:59.359Z,57.52
2022-09-12T10:39:27.549Z,56.44
2022-09-12T10:41:54.867Z,56.14
2022-09-12T10:44:26.016Z,54.38
2022-09-12T10:46:55.966Z,53.25
2022-09-12T10:49:26.126Z,51.44
2022-09-12T10:51:55.078Z,49.95
2022-09-12T10:54:25.568Z,50.52
2022-09-12T10:57:04.527Z,50.87
2022-09-12T10:59:49.334Z,48.37
2022-09-12T11:02:28.123Z,49.31
2022-09-12T11:05:05.448Z,49.60
2022-09-12T11:07:43.315Z,51.05
2022-09-12T11:10:24.995Z,51.14
2022-09-12T11:13:04.484Z,48.60
2022-09-12T11:15:55.983Z,49.73
2022-09-12T11:18:40.830Z,49.64
2022-09-12T11:21:18.038Z,49.86
2022-09-12T11:24:09.171Z,47.98
2022-09-12T11:27:01.900Z,48.11
2022-09-12T11:29:46.016Z,48.87
2022-09-12T11:32:42.132Z,50.17
2022-09-12T11:35:19.330Z,49.57
2022-09-12T11:38:12.765Z,49.07
2022-09-12T11:40:45.584Z,49.69
2022-09-12T11:43:23.939Z,49.29
2022-09-12T11:45:52.789Z,50.67
2022-09-12T11:48:35.675Z,49.43
2022-09-12T11:51:07.686Z,50.88
2022-09-12T11:53:40.724Z,50.89
2022-09-12T11:56:14.514Z,50.50
2022-09-12T11:58:44.528Z,50.10
2022-09-12T12:01:17.901Z,50.56
2022-09-12T12:03:47.554Z,50.42
2022-09-12T12:06:18.801Z,48.71
2022-09-12T12:08:48.144Z,48.26
2022-09-12T12:11:27.335Z,48.56
2022-09-12T12:13:57.452Z,48.13
2022-09-12T12:16:28.203Z,49.24
2022-09-12T12:19:00.378Z,48.02
2022-09-12T12:21:38.849Z,50.01
2022-09-12T12:24:19.032Z,47.67
2022-09-12T12:26:59.571Z,50.12
2022-09-12T12:29:43.378Z,49.15
2022-09-12T12:32:36.023Z,49.67
2022-09-12T12:35:38.145Z,52.42
2022-09-12T12:38:28.473Z,50.81
2022-09-12T12:41:40.833Z,51.90
2022-09-12T12:44:41.930Z,51.44
2022-09-12T12:47:17.569Z,50.86
2022-09-12T12:49:51.817Z,51.13
2022-09-12T12:52:19.897Z,52.25
2022-09-12T12:54:54.136Z,51.58
2022-09-12T12:57:40.276Z,51.91
2022-09-12T13:00:26.477Z,50.89
2022-09-12T13:02:58.741Z,52.08
2022-09-12T13:05:29.454Z,51.17
2022-09-12T13:08:00.786Z,50.87
2022-09-12T13:10:29.894Z,50.95
2022-09-12T13:13:00.969Z,52.10
2022-09-12T13:15:50.470Z,52.78
2022-09-12T13:18:27.588Z,52.97
2022-09-12T13:21:06.140Z,52.93
2022-09-12T13:23:34.419Z,53.13
2022-09-12T13:26:04.671Z,53.20
2022-09-12T13:28:32.298Z,51.96
2022-09-12T13:31:03.222Z,52.63
2022-09-12T13:33:37.347Z,52.38
2022-09-12T13:36:28.466Z,51.98
2022-09-12T13:39:13.852Z,51.69
2022-09-12T13:41:58.958Z,51.28
2022-09-12T13:44:28.306Z,51.11
2022-09-12T13:46:59.010Z,49.99
2022-09-12T13:49:32.327Z,49.34
2022-09-12T13:52:03.008Z,49.99
2022-09-12T13:54:31.424Z,46.81
2022-09-12T13:57:00.238Z,46.39
2022-09-12T13:59:28.072Z,46.43
2022-09-12T14:01:55.385Z,44.83
2022-09-12T14:04:24.945Z,45.69
2022-09-12T14:06:53.308Z,45.97
2022-09-12T14:09:25.247Z,43.41
2022-09-12T14:11:53.826Z,44.25
2022-09-12T14:14:29.912Z,44.04
2022-09-12T14:16:57.446Z,43.24
2022-09-12T14:19:26.474Z,42.63
2022-09-12T14:21:54.637Z,44.18
2022-09-12T14:24:22.327Z,43.65
2022-09-12T14:26:52.170Z,43.32
2022-09-12T14:29:20.941Z,43.78
2022-09-12T14:32:01.409Z,44.27
2022-09-12T14:34:29.900Z,44.41
2022-09-12T14:36:58.467Z,44.96
2022-09-12T14:39:32.223Z,44.89
2022-09-12T14:42:06.754Z,46.37
2022-09-12T14:44:35.689Z,45.53
2022-09-12T14:47:15.318Z,45.60
2022-09-12T14:49:42.841Z,47.99
2022-09-12T14:52:24.737Z,47.59
2022-09-12T14:55:00.872Z,49.60
2022-09-12T14:57:36.441Z,49.15
2022-09-12T15:00:17.143Z,49.55
2022-09-12T15:02:46.891Z,50.77
2022-09-12T15:05:23.589Z,50.65
2022-09-12T15:07:58.027Z,50.48
2022-09-12T15:10:27.809Z,50.12
2022-09-12T15:13:12.650Z,51.40
2022-09-12T15:15:41.596Z,51.75
2022-09-12T15:18:11.215Z,51.33
2022-09-12T15:20:39.939Z,51.71
2022-09-12T15:23:14.866Z,52.84
2022-09-12T15:25:42.377Z,52.82
2022-09-12T15:28:16.852Z,53.12
2022-09-12T15:30:45.023Z,52.89
2022-09-12T15:33:13.683Z,54.01
2022-09-12T15:35:41.536Z,54.30
2022-09-12T15:38:09.220Z,54.33
2022-09-12T15:40:36.643Z,53.60
2022-09-12T15:43:03.947Z,54.81
2022-09-12T15:45:33.658Z,54.51
2022-09-12T15:48:03.131Z,54.93
2022-09-12T15:50:34.873Z,55.06
2022-09-12T15:53:02.476Z,54.12
2022-09-12T15:55:31.724Z,53.76
2022-09-12T15:58:03.535Z,54.20
2022-09-12T16:00:32.340Z,55.03
2022-09-12T16:03:00.093Z,55.61
2022-09-12T16:05:27.779Z,56.43
2022-09-12T16:07:56.423Z,56.57
2022-09-12T16:10:27.867Z,56.46
2022-09-12T16:12:55.179Z,58.19
2022-09-12T16:15:24.528Z,58.81
2022-09-12T16:17:52.652Z,58.45
2022-09-12T16:20:20.753Z,59.06
2022-09-12T16:22:48.579Z,59.20
2022-09-12T16:25:18.057Z,58.59
2022-09-12T16:27:45.822Z,58.95
2022-09-12T16:30:13.587Z,58.90
2022-09-12T16:32:41.114Z,59.33
2022-09-12T16:35:08.991Z,59.77
2022-09-12T16:37:36.380Z,60.56
2022-09-12T16:40:06.966Z,59.93
2022-09-12T16:42:35.986Z,60.27
2022-09-12T16:45:03.556Z,60.98
2022-09-12T16:47:32.768Z,61.54
2022-09-12T16:50:00.065Z,62.10
2022-09-12T16:52:27.489Z,60.72
2022-09-12T16:54:55.159Z,60.98
2022-09-12T16:57:22.907Z,61.15
2022-09-12T16:59:51.553Z,61.99
2022-09-12T17:02:20.371Z,62.20
2022-09-12T17:04:47.791Z,63.24
2022-09-12T17:07:15.186Z,63.55
2022-09-12T17:09:46.261Z,64.67
2022-09-12T17:12:15.358Z,64.03
2022-09-12T17:14:42.675Z,63.87
2022-09-12T17:17:11.607Z,63.47
2022-09-12T17:19:38.891Z,63.81
2022-09-12T17:22:06.169Z,63.93
2022-09-12T17:24:34.022Z,64.76
2022-09-12T17:27:01.337Z,64.87
2022-09-12T17:29:28.798Z,65.34
2022-09-12T17:31:56.308Z,64.96
2022-09-12T17:34:24.991Z,64.40
2022-09-12T17:36:52.382Z,64.77
2022-09-12T17:39:20.174Z,65.05
2022-09-12T17:41:47.489Z,64.82
2022-09-12T17:44:15.422Z,65.31
2022-09-12T17:46:44.311Z,66.44
2022-09-12T17:49:13.475Z,66.95
2022-09-12T17:51:43.101Z,65.92
2022-09-12T17:54:12.191Z,66.39
2022-09-12T17:56:39.855Z,67.03
2022-09-12T17:59:08.359Z,67.38
2022-09-12T18:01:36.202Z,68.83
2022-09-12T18:04:03.673Z,69.03
2022-09-12T18:06:32.492Z,68.29
2022-09-12T18:09:02.133Z,67.25
2022-09-12T18:11:30.037Z,67.84
2022-09-12T18:13:58.460Z,67.04
2022-09-12T18:16:27.234Z,67.41
2022-09-12T18:18:54.574Z,65.72
2022-09-12T18:21:21.856Z,66.80
2022-09-12T18:23:49.908Z,66.82
2022-09-12T18:26:19.889Z,65.75
2022-09-12T18:28:47.283Z,66.62
2022-09-12T18:31:17.584Z,64.96
2022-09-12T18:33:45.421Z,65.08
2022-09-12T18:36:14.142Z,64.16
2022-09-12T18:38:42.587Z,64.05
2022-09-12T18:41:13.201Z,65.65
2022-09-12T18:43:42.137Z,70.73
2022-09-12T18:46:13.078Z,73.20
2022-09-12T18:48:40.739Z,67.88
2022-09-12T18:51:11.028Z,65.11
2022-09-12T18:53:39.458Z,65.65
2022-09-12T18:56:09.274Z,70.04
2022-09-12T18:58:37.147Z,66.06
2022-09-12T19:01:14.397Z,64.95
2022-09-12T19:03:42.351Z,64.23
2022-09-12T19:06:12.242Z,63.98
2022-09-12T19:08:39.846Z,64.44
2022-09-12T19:11:07.870Z,64.18
2022-09-12T19:13:36.846Z,63.73
2022-09-12T19:16:05.940Z,63.99
2022-09-12T19:18:35.058Z,63.82
2022-09-12T19:21:03.058Z,64.34
2022-09-12T19:23:30.836Z,64.69
2022-09-12T19:25:59.254Z,68.36
2022-09-12T19:28:27.543Z,71.01
2022-09-12T19:30:55.182Z,71.68
2022-09-12T19:33:23.180Z,69.42
2022-09-12T19:35:52.989Z,66.65
2022-09-12T19:38:20.593Z,65.09
2022-09-12T19:40:56.786Z,67.70
2022-09-12T19:43:25.168Z,71.36
2022-09-12T19:45:53.284Z,67.83
2022-09-12T19:48:21.588Z,66.32
2022-09-12T19:50:49.894Z,66.99
2022-09-12T19:53:19.071Z,65.11
2022-09-12T19:55:46.993Z,67.41
2022-09-12T19:58:14.646Z,64.86
2022-09-12T20:00:41.963Z,67.60
2022-09-12T20:03:09.326Z,72.22
2022-09-12T20:05:42.058Z,69.06
2022-09-12T20:08:09.969Z,68.70
2022-09-12T20:10:39.031Z,68.47
2022-09-12T20:13:07.170Z,66.74
2022-09-12T20:15:34.429Z,65.93
2022-09-12T20:18:02.117Z,66.87
2022-09-12T20:20:29.426Z,68.13
2022-09-12T20:22:56.637Z,68.78
2022-09-12T20:25:24.566Z,72.71
2022-09-12T20:27:55.926Z,73.97
2022-09-12T20:30:27.716Z,73.06
2022-09-12T20:32:54.954Z,71.23
2022-09-12T20:35:22.235Z,69.70
2022-09-12T20:37:49.947Z,69.16
2022-09-12T20:40:17.420Z,68.05
2022-09-12T20:42:44.712Z,70.41
2022-09-12T20:45:13.781Z,72.64
2022-09-12T20:47:41.060Z,67.95
2022-09-12T20:50:09.280Z,67.54
2022-09-12T20:52:36.848Z,66.70
2022-09-12T20:55:05.336Z,66.95
2022-09-12T20:57:32.616Z,67.28
2022-09-12T21:00:00.172Z,67.17
2022-09-12T21:02:29.043Z,67.25
2022-09-12T21:04:56.466Z,71.62
2022-09-12T21:07:24.021Z,68.67
2022-09-12T21:09:51.365Z,67.48
2022-09-12T21:12:18.923Z,68.20
2022-09-12T21:14:46.607Z,69.17
2022-09-12T21:17:13.898Z,68.88
2022-09-12T21:19:42.822Z,70.52
2022-09-12T21:22:10.745Z,68.79
2022-09-12T21:24:38.032Z,70.13
2022-09-12T21:27:05.537Z,69.88
2022-09-12T21:29:33.183Z,66.91
2022-09-12T21:32:00.439Z,68.05
2022-09-12T21:34:27.752Z,70.59
2022-09-12T21:36:56.817Z,67.56
2022-09-12T21:39:24.213Z,67.95
2022-09-12T21:41:51.528Z,67.43
2022-09-12T21:44:19.166Z,66.83
2022-09-12T21:46:46.341Z,67.62
2022-09-12T21:49:15.563Z,66.90
2022-09-12T21:51:43.480Z,67.74
2022-09-12T21:54:12.323Z,73.00
2022-09-12T21:56:39.854Z,69.79
2022-09-12T21:59:07.273Z,68.26
2022-09-12T22:01:34.630Z,67.57
2022-09-12T22:04:02.433Z,67.78
2022-09-12T22:06:30.144Z,69.37
2022-09-12T22:08:57.528Z,69.08
2022-09-12T22:11:26.349Z,68.80
2022-09-12T22:13:54.150Z,68.82
2022-09-12T22:16:21.414Z,69.16
2022-09-12T22:18:48.853Z,70.31
2022-09-12T22:21:18.960Z,69.51
2022-09-12T22:23:46.466Z,70.64
2022-09-12T22:26:14.149Z,71.88
2022-09-12T22:28:43.356Z,74.02
2022-09-12T22:31:11.170Z,69.35
2022-09-12T22:33:39.350Z,70.92
2022-09-12T22:36:07.953Z,71.45
2022-09-12T22:38:35.681Z,71.37
2022-09-12T22:41:05.281Z,72.95
2022-09-12T22:43:32.942Z,72.55
2022-09-12T22:46:05.338Z,70.89
2022-09-12T22:48:32.554Z,70.44
2022-09-12T22:51:00.317Z,69.05
2022-09-12T22:53:27.558Z,68.75
2022-09-12T22:55:55.528Z,70.99
2022-09-12T22:58:23.138Z,74.06
2022-09-12T23:00:51.655Z,74.06
2022-09-12T23:03:21.087Z,75.20
2022-09-12T23:05:49.095Z,74.98
2022-09-12T23:08:17.437Z,74.16
2022-09-12T23:10:45.306Z,71.33
2022-09-12T23:13:12.985Z,70.44
2022-09-12T23:15:41.072Z,70.22
2022-09-12T23:18:08.407Z,71.09
2022-09-12T23:20:36.983Z,71.78
2022-09-12T23:23:04.930Z,71.66
2022-09-12T23:25:32.198Z,71.44
2022-09-12T23:27:59.602Z,72.22
2022-09-12T23:30:27.442Z,72.18
2022-09-12T23:32:55.978Z,72.04
2022-09-12T23:35:23.472Z,71.64
2022-09-12T23:37:52.959Z,72.30
2022-09-12T23:40:20.153Z,69.11
2022-09-12T23:42:47.622Z,69.91
2022-09-12T23:45:15.485Z,72.16
2022-09-12T23:47:42.982Z,69.51
2022-09-12T23:50:10.458Z,69.83
2022-09-12T23:52:37.909Z,70.26
2022-09-12T23:55:07.475Z,71.33
2022-09-12T23:57:34.670Z,77.98
